createdAt,value
2024-02-26T00:02:19.407Z,58.10
2024-02-26T00:07:41.637Z,58.05
2024-02-26T00:12:44.762Z,58.31
2024-02-26T00:17:48.052Z,58.28
2024-02-26T00:22:51.160Z,58.08
2024-02-26T00:27:54.180Z,58.15
2024-02-26T00:32:57.207Z,58.15
2024-02-26T00:38:01.126Z,58.42
2024-02-26T00:43:04.174Z,58.53
2024-02-26T00:48:08.852Z,58.76
2024-02-26T00:53:12.176Z,58.53
2024-02-26T00:58:15.609Z,58.46
2024-02-26T01:03:19.128Z,58.32
2024-02-26T01:08:22.265Z,58.90
2024-02-26T01:13:25.226Z,59.42
2024-02-26T01:18:28.623Z,59.63
2024-02-26T01:23:31.743Z,59.50
2024-02-26T01:28:34.771Z,59.23
2024-02-26T01:33:38.367Z,59.42
2024-02-26T01:38:41.499Z,58.89
2024-02-26T01:43:44.667Z,58.11
2024-02-26T01:48:49.493Z,58.35
2024-02-26T01:53:53.295Z,58.15
2024-02-26T01:58:56.828Z,58.60
2024-02-26T02:04:01.321Z,58.03
2024-02-26T02:09:08.010Z,57.92
2024-02-26T02:14:11.249Z,57.97
2024-02-26T02:19:15.047Z,58.57
2024-02-26T02:24:18.311Z,58.52
2024-02-26T02:29:21.806Z,58.23
2024-02-26T02:34:25.423Z,58.17
2024-02-26T02:39:28.710Z,58.42
2024-02-26T02:44:31.777Z,58.67
2024-02-26T02:49:35.253Z,58.10
2024-02-26T02:54:41.800Z,57.95
2024-02-26T02:59:45.383Z,58.43
2024-02-26T03:04:48.515Z,58.25
2024-02-26T03:09:51.656Z,58.40
2024-02-26T03:14:55.597Z,58.06
2024-02-26T03:19:58.586Z,59.18
2024-02-26T03:25:01.764Z,58.95
2024-02-26T03:30:07.772Z,59.26
2024-02-26T03:35:10.958Z,59.41
2024-02-26T03:40:16.022Z,59.78
2024-02-26T03:45:19.090Z,59.15
2024-02-26T03:50:22.179Z,59.40
2024-02-26T03:55:26.739Z,59.34
2024-02-26T04:00:31.806Z,59.32
2024-02-26T04:05:34.965Z,59.82
2024-02-26T04:10:40.455Z,59.82
2024-02-26T04:15:43.539Z,58.94
2024-02-26T04:20:46.433Z,58.29
2024-02-26T04:25:49.852Z,58.26
2024-02-26T04:30:52.956Z,57.56
2024-02-26T04:35:56.128Z,57.12
2024-02-26T04:40:59.063Z,56.56
2024-02-26T04:46:02.169Z,56.62
2024-02-26T04:51:05.846Z,56.89
2024-02-26T04:56:08.916Z,56.98
2024-02-26T05:01:12.843Z,57.12
2024-02-26T05:06:16.753Z,57.60
2024-02-26T05:11:20.008Z,57.72
2024-02-26T05:16:26.054Z,57.37
2024-02-26T05:21:29.076Z,57.03
2024-02-26T05:26:32.152Z,56.44
2024-02-26T05:31:35.419Z,56.62
2024-02-26T05:36:38.658Z,56.58
2024-02-26T05:41:43.617Z,56.43
2024-02-26T05:46:46.820Z,56.08
2024-02-26T05:51:49.938Z,55.55
2024-02-26T05:56:53.308Z,55.61
2024-02-26T06:01:56.982Z,56.15
2024-02-26T06:07:00.154Z,55.46
2024-02-26T06:12:03.640Z,55.39
2024-02-26T06:17:06.775Z,54.42
2024-02-26T06:22:09.904Z,54.52
2024-02-26T06:27:13.866Z,53.94
2024-02-26T06:32:17.200Z,53.99
2024-02-26T06:37:20.282Z,53.46
2024-02-26T06:42:23.458Z,52.99
2024-02-26T06:47:27.495Z,52.55
2024-02-26T06:52:30.557Z,51.63
2024-02-26T06:57:33.685Z,51.75
2024-02-26T07:02:39.994Z,51.93
2024-02-26T07:07:43.665Z,51.35
2024-02-26T07:12:46.722Z,50.19
2024-02-26T07:17:50.816Z,49.83
2024-02-26T07:22:53.954Z,49.69
2024-02-26T07:27:57.215Z,49.12
2024-02-26T07:33:00.299Z,49.73
2024-02-26T07:38:03.426Z,49.70
2024-02-26T07:43:06.686Z,49.89
2024-02-26T07:48:10.071Z,49.24
2024-02-26T07:53:13.414Z,48.51
2024-02-26T07:58:16.454Z,48.04
2024-02-26T08:03:20.018Z,47.70
2024-02-26T08:08:23.190Z,47.19
2024-02-26T08:13:26.214Z,46.72
2024-02-26T08:18:29.292Z,46.43
2024-02-26T08:23:33.035Z,46.23
2024-02-26T08:28:35.971Z,46.11
2024-02-26T08:33:39.295Z,45.17
2024-02-26T08:38:42.449Z,45.25
2024-02-26T08:43:45.513Z,44.41
2024-02-26T08:48:48.964Z,45.60
2024-02-26T08:53:52.599Z,45.09
2024-02-26T08:58:58.079Z,44.52
2024-02-26T09:04:01.605Z,44.24
2024-02-26T09:09:05.195Z,44.64
2024-02-26T09:14:08.457Z,44.31
2024-02-26T09:19:11.545Z,43.94
2024-02-26T09:24:14.729Z,43.52
2024-02-26T09:29:19.046Z,43.93
2024-02-26T09:34:22.089Z,44.16
2024-02-26T09:39:25.277Z,43.87
2024-02-26T09:44:31.921Z,44.02
2024-02-26T09:49:36.741Z,44.73
2024-02-26T09:54:40.047Z,44.50
2024-02-26T09:59:44.019Z,44.47
2024-02-26T10:04:51.689Z,43.94
2024-02-26T10:09:55.592Z,43.09
2024-02-26T10:14:58.878Z,42.57
2024-02-26T10:20:18.113Z,43.45
2024-02-26T10:25:21.383Z,41.00
2024-02-26T10:30:24.770Z,40.77
2024-02-26T10:35:30.128Z,40.43
2024-02-26T10:40:33.525Z,39.16
2024-02-26T10:45:38.719Z,37.94
2024-02-26T10:50:42.856Z,37.89
2024-02-26T10:55:51.085Z,37.55
2024-02-26T11:00:55.258Z,38.06
2024-02-26T11:06:01.025Z,38.04
2024-02-26T11:11:04.954Z,39.00
2024-02-26T11:16:09.338Z,37.50
2024-02-26T11:21:16.752Z,38.57
2024-02-26T11:26:21.866Z,38.96
2024-02-26T11:31:28.898Z,40.52
2024-02-26T11:36:32.106Z,40.22
2024-02-26T11:41:35.543Z,41.00
2024-02-26T11:46:43.882Z,40.74
2024-02-26T11:51:53.396Z,41.05
2024-02-26T11:56:59.417Z,41.04
2024-02-26T12:02:03.349Z,41.08
2024-02-26T12:07:07.321Z,40.74
2024-02-26T12:12:12.584Z,40.66
2024-02-26T12:17:21.653Z,40.37
2024-02-26T12:22:26.590Z,39.41
2024-02-26T12:27:29.844Z,39.48
2024-02-26T12:32:33.297Z,39.01
2024-02-26T12:37:41.152Z,40.47
2024-02-26T12:42:45.789Z,40.24
2024-02-26T12:47:51.136Z,40.99
2024-02-26T12:52:54.780Z,41.78
2024-02-26T12:57:58.178Z,41.38
2024-02-26T13:03:02.001Z,41.77
2024-02-26T13:08:08.979Z,41.96
2024-02-26T13:13:12.849Z,42.64
2024-02-26T13:18:16.850Z,42.51
2024-02-26T13:23:21.446Z,42.57
2024-02-26T13:28:28.524Z,42.51
2024-02-26T13:33:32.611Z,42.95
2024-02-26T13:38:35.872Z,43.30
2024-02-26T13:43:38.928Z,43.68
2024-02-26T13:48:43.009Z,44.40
2024-02-26T13:53:46.308Z,44.59
2024-02-26T13:58:49.833Z,45.23
2024-02-26T14:03:56.654Z,45.63
2024-02-26T14:09:00.609Z,46.27
2024-02-26T14:14:03.815Z,47.06
2024-02-26T14:19:06.908Z,47.77
2024-02-26T14:24:10.073Z,48.26
2024-02-26T14:29:13.109Z,48.53
2024-02-26T14:34:18.954Z,49.25
2024-02-26T14:39:22.248Z,49.92
2024-02-26T14:44:26.087Z,50.03
2024-02-26T14:49:31.224Z,50.46
2024-02-26T14:54:38.743Z,50.30
2024-02-26T14:59:42.021Z,50.42
2024-02-26T15:04:46.237Z,51.29
2024-02-26T15:09:50.051Z,51.85
2024-02-26T15:14:53.182Z,51.76
2024-02-26T15:19:58.434Z,52.80
2024-02-26T15:25:01.909Z,53.07
2024-02-26T15:30:06.534Z,53.82
2024-02-26T15:35:10.742Z,53.83
2024-02-26T15:40:13.993Z,54.31
2024-02-26T15:45:17.738Z,54.65
2024-02-26T15:50:21.036Z,55.29
2024-02-26T15:55:44.197Z,55.91
2024-02-26T16:01:12.413Z,56.25
2024-02-26T16:06:43.944Z,56.86
2024-02-26T16:11:48.436Z,56.49
2024-02-26T16:17:05.642Z,57.35
2024-02-26T16:22:08.765Z,57.55
2024-02-26T16:27:11.997Z,57.16
2024-02-26T16:32:33.716Z,57.56
2024-02-26T16:37:38.146Z,57.81
2024-02-26T16:42:41.580Z,58.81
2024-02-26T16:47:45.492Z,59.19
2024-02-26T16:52:50.995Z,59.49
2024-02-26T16:57:58.134Z,59.69
2024-02-26T17:03:03.602Z,60.29
2024-02-26T17:08:06.958Z,60.16
2024-02-26T17:13:10.818Z,60.78
2024-02-26T17:18:14.664Z,60.79
2024-02-26T17:23:18.369Z,60.85
2024-02-26T17:28:21.709Z,61.02
2024-02-26T17:33:25.170Z,60.63
2024-02-26T17:38:28.440Z,60.30
2024-02-26T17:43:31.573Z,60.30
2024-02-26T17:48:36.124Z,60.34
2024-02-26T17:53:40.342Z,59.82
2024-02-26T17:58:43.771Z,59.87
2024-02-26T18:03:47.011Z,58.89
2024-02-26T18:08:50.320Z,58.80
2024-02-26T18:13:53.797Z,58.60
2024-02-26T18:18:57.185Z,58.55
2024-02-26T18:24:00.678Z,58.01
2024-02-26T18:29:04.056Z,57.93
2024-02-26T18:34:07.315Z,57.85
2024-02-26T18:39:10.929Z,57.73
2024-02-26T18:44:16.130Z,57.15
2024-02-26T18:49:19.675Z,56.85
2024-02-26T18:54:22.948Z,57.70
2024-02-26T18:59:26.074Z,57.08
2024-02-26T19:04:30.479Z,57.15
2024-02-26T19:09:33.968Z,57.63
2024-02-26T19:14:37.519Z,57.01
2024-02-26T19:19:40.804Z,56.89
2024-02-26T19:24:43.965Z,56.42
2024-02-26T19:29:47.014Z,55.62
2024-02-26T19:34:50.120Z,56.02
2024-02-26T19:39:59.259Z,55.66
2024-02-26T19:45:21.061Z,55.88
2024-02-26T19:50:24.205Z,55.94
2024-02-26T19:55:29.146Z,56.25
2024-02-26T20:00:33.185Z,56.49
2024-02-26T20:05:37.728Z,56.79
2024-02-26T20:10:41.330Z,57.73
2024-02-26T20:15:45.053Z,57.74
2024-02-26T20:20:48.183Z,58.44
2024-02-26T20:25:51.911Z,58.40
2024-02-26T20:30:55.003Z,58.91
2024-02-26T20:35:58.223Z,59.46
2024-02-26T20:41:01.492Z,59.61
2024-02-26T20:46:06.329Z,59.91
2024-02-26T20:51:10.192Z,60.24
2024-02-26T20:56:14.385Z,60.81
2024-02-26T21:01:17.743Z,61.34
2024-02-26T21:06:21.153Z,61.47
2024-02-26T21:11:24.326Z,61.51
2024-02-26T21:16:27.733Z,62.25
2024-02-26T21:21:34.771Z,62.31
2024-02-26T21:26:38.170Z,62.47
2024-02-26T21:31:59.999Z,62.82
2024-02-26T21:37:03.113Z,62.21
2024-02-26T21:42:07.164Z,63.04
2024-02-26T21:47:11.451Z,62.86
2024-02-26T21:52:16.930Z,63.03
2024-02-26T21:57:20.087Z,63.38
2024-02-26T22:02:23.310Z,63.75
2024-02-26T22:07:28.061Z,64.40
2024-02-26T22:12:31.696Z,64.43
2024-02-26T22:17:36.623Z,64.57
2024-02-26T22:22:40.730Z,64.52
2024-02-26T22:27:43.832Z,64.24
2024-02-26T22:32:47.107Z,64.89
2024-02-26T22:37:50.317Z,64.60
2024-02-26T22:42:57.178Z,64.53
2024-02-26T22:48:01.014Z,65.05
2024-02-26T22:53:04.712Z,65.30
2024-02-26T22:58:07.822Z,65.51
2024-02-26T23:03:11.628Z,66.04
2024-02-26T23:08:16.862Z,66.05
2024-02-26T23:13:21.757Z,65.89
2024-02-26T23:18:25.283Z,65.91
2024-02-26T23:23:28.641Z,66.25
2024-02-26T23:28:33.029Z,66.81
2024-02-26T23:33:36.369Z,67.21
2024-02-26T23:38:39.565Z,68.25
2024-02-26T23:43:42.808Z,68.93
2024-02-26T23:48:46.838Z,69.59
2024-02-26T23:53:50.031Z,69.48
2024-02-26T23:58:53.782Z,69.42
